ADDS METAR Data INFO
IDs: Format: Raw Decoded Include TAF

Data at: 1511 UTC 23 Oct 2017

KEOK 231455Z AUTO 24004KT 10SM CLR 10/08 A2986 RMK AO2
KEOK 231435Z AUTO 26006KT 10SM CLR 09/08 A2987 RMK AO2
KEOK 231415Z AUTO 22004KT 10SM CLR 09/07 A2989 RMK AO2
KEOK 231355Z AUTO 26004KT 10SM CLR 08/07 A2990 RMK AO2
KEOK 231335Z AUTO 24003KT 10SM CLR 08/07 A2992 RMK AO2
KEOK 231315Z AUTO 25005KT 10SM CLR 08/07 A2992 RMK AO2
KEOK 231255Z AUTO 14004KT 10SM CLR 08/07 A2994 RMK AO2
KEOK 231235Z AUTO 23005KT 10SM CLR 08/07 A2994 RMK AO2
KEOK 231215Z AUTO 26006KT 10SM CLR 08/07 A2992 RMK AO2
KEOK 231155Z AUTO 26006KT 10SM CLR 07/07 A2992 RMK AO2
KEOK 231135Z AUTO 17003KT 10SM CLR 07/07 A2993 RMK AO2
KEOK 231115Z AUTO 28004KT 10SM CLR 07/07 A2993 RMK AO2
KEOK 231055Z AUTO 14004KT 10SM CLR 07/06 A2995 RMK AO2
KEOK 231035Z AUTO 00000KT 10SM CLR 08/07 A2993 RMK AO2
KEOK 231015Z AUTO 31005KT 10SM CLR 09/07 A2992 RMK AO2
KEOK 230955Z AUTO 33004KT 10SM CLR 09/07 A2992 RMK AO2
KEOK 230935Z AUTO 31007KT 10SM CLR 09/08 A2993 RMK AO2
KEOK 230915Z AUTO 30006KT 10SM CLR 08/08 A2994 RMK AO2
KEOK 230855Z AUTO 00000KT 10SM CLR 08/08 A2995 RMK AO2
KEOK 230835Z AUTO 31005KT 10SM CLR 08/08 A2996 RMK AO2
KEOK 230815Z AUTO 00000KT 6SM BR CLR 09/08 A2998 RMK AO2
KEOK 230755Z AUTO 00000KT 10SM CLR 09/09 A2999 RMK AO2
KEOK 230735Z AUTO 00000KT 10SM CLR 09/09 A3001 RMK AO2
KEOK 230715Z AUTO 00000KT 10SM CLR 09/09 A3001 RMK AO2
KEOK 230655Z AUTO 00000KT 10SM CLR 09/09 A3002 RMK AO2
KEOK 230635Z AUTO 00000KT 10SM CLR 09/09 A3002 RMK AO2
KEOK 230615Z AUTO 27004KT 10SM CLR 09/09 A3002 RMK AO2
KEOK 230555Z AUTO 30004KT 10SM CLR 10/09 A3002 RMK AO2
KEOK 230535Z AUTO 00000KT 10SM CLR 10/09 A3003 RMK AO2
KEOK 230515Z AUTO 00000KT 10SM CLR 10/09 A3003 RMK AO2
KEOK 230455Z AUTO 00000KT 10SM CLR 10/09 A3003 RMK AO2
KEOK 230435Z AUTO 00000KT 10SM CLR 10/09 A3003 RMK AO2
KEOK 230415Z AUTO 00000KT 10SM CLR 10/09 A3004 RMK AO2
KEOK 230355Z AUTO 00000KT 10SM CLR 10/09 A3004 RMK AO2
KEOK 230335Z AUTO 00000KT 10SM CLR 11/10 A3005 RMK AO2
KEOK 230315Z AUTO 00000KT 10SM CLR 11/10 A3005 RMK AO2
KEOK 230255Z AUTO 00000KT 10SM CLR 11/10 A3005 RMK AO2
KEOK 230235Z AUTO 00000KT 10SM CLR 11/10 A3005 RMK AO2
KEOK 230215Z AUTO 00000KT 10SM CLR 11/10 A3006 RMK AO2
KEOK 230155Z AUTO 00000KT 11/10 A3006 RMK AO2
KEOK 230135Z AUTO 31003KT 10SM CLR 11/10 A3006 RMK AO2
KEOK 230115Z AUTO 00000KT 10SM CLR 11/10 A3007 RMK AO2
KEOK 230055Z AUTO 00000KT 10SM CLR 11/10 A3007 RMK AO2
KEOK 230035Z AUTO 00000KT 10SM CLR 11/10 A3007 RMK AO2
KEOK 230015Z AUTO 00000KT 10SM CLR 11/10 A3007 RMK AO2
KEOK 222355Z AUTO 27003KT 10SM CLR 12/10 A3008 RMK AO2
KEOK 222335Z AUTO 00000KT 10SM CLR 12/10 A3007 RMK AO2
KEOK 222315Z AUTO 00000KT 10SM CLR 12/10 A3007 RMK AO2
KEOK 222255Z AUTO 00000KT 10SM CLR 13/10 A3007 RMK AO2
KEOK 222235Z AUTO 31003KT 10SM CLR 13/10 A3007 RMK AO2
KEOK 222215Z AUTO 00000KT 10SM CLR 13/10 A3007 RMK AO2
KEOK 222155Z AUTO 33003KT 10SM CLR 13/10 A3006 RMK AO2
KEOK 222135Z AUTO 30005KT 10SM FEW075 13/10 A3008 RMK AO2
KEOK 222115Z AUTO VRB05KT 10SM BKN075 13/10 A3007 RMK AO2
KEOK 222055Z AUTO 31005KT 10SM SCT080 13/10 A3008 RMK AO2
KEOK 222035Z AUTO 32006KT 10SM CLR 13/10 A3008 RMK AO2
KEOK 222015Z AUTO 32005KT 10SM FEW070 12/10 A3007 RMK AO2
KEOK 221955Z AUTO 31006KT 10SM BKN075 12/10 A3006 RMK AO2
KEOK 221935Z AUTO 32006KT 10SM OVC075 12/10 A3006 RMK AO2
KEOK 221915Z AUTO 31008KT 10SM SCT055 OVC070 12/10 A3006 RMK AO2
KEOK 221855Z AUTO 30006KT 10SM OVC055 13/09 A3006 RMK AO2
KEOK 221835Z AUTO 31008KT 10SM OVC055 13/09 A3006 RMK AO2
KEOK 221815Z AUTO 32007KT 10SM OVC055 12/09 A3005 RMK AO2
KEOK 221755Z AUTO 31006KT 8SM OVC050 12/09 A3005 RMK AO2
KEOK 221735Z AUTO VRB04KT 10SM FEW039 OVC050 12/09 A3004 RMK AO2
KEOK 221715Z AUTO 00000KT 10SM FEW038 OVC046 12/09 A3004 RMK AO2
KEOK 221655Z AUTO 01005G10KT 10SM OVC044 12/09 A3003 RMK AO2
KEOK 221635Z AUTO 35009KT 10SM OVC043 12/09 A3004 RMK AO2
KEOK 221615Z AUTO 33011KT 310V010 10SM SCT013 SCT019 OVC041 12/10 A3003 RMK AO2
KEOK 221555Z AUTO 33010G15KT 10SM SCT013 SCT019 OVC037 11/10 A3004 RMK AO2
KEOK 221535Z AUTO 33009KT 10SM OVC033 11/10 A3002 RMK AO2
KEOK 221515Z AUTO 33010G17KT 300V360 10SM OVC030 11/10 A3001 RMK AO2
KEOK 221455Z AUTO 33011KT 10SM OVC030 12/10 A3000 RMK AO2
KEOK 221435Z AUTO 33007G17KT 10SM FEW012 BKN029 BKN080 11/10 A3000 RMK AO2
KEOK 221415Z AUTO 33007G14KT 10SM FEW012 SCT075 BKN085 11/10 A2999 RMK AO2
KEOK 221355Z AUTO VRB06KT 10SM SCT038 BKN070 OVC085 11/10 A2999 RMK AO2
KEOK 221335Z AUTO VRB06KT 8SM -RA BKN037 OVC070 11/10 A2999 RMK AO2
KEOK 221315Z AUTO 33007KT 10SM -RA FEW036 FEW060 BKN070 11/10 A2998 RMK AO2
KEOK 221255Z AUTO VRB04G12KT 10SM FEW031 SCT075 BKN095 11/10 A2995 RMK AO2 P0002
KEOK 221235Z AUTO 33007KT 9SM -RA FEW034 SCT050 BKN075 11/10 A2995 RMK AO2
KEOK 221215Z AUTO 34008KT 10SM -RA FEW028 SCT055 BKN075 11/10 A2994 RMK AO2
KEOK 221155Z AUTO 35013KT 6SM -RA SCT036 BKN070 OVC095 12/11 A2992 RMK AO2
KEOK 221135Z AUTO 33006G16KT 10SM SCT011 SCT031 OVC070 12/11 A2996 RMK AO2
KEOK 221115Z AUTO 33010G17KT 7SM -RA OVC010 12/11 A2992 RMK AO2
KEOK 221055Z AUTO 34009KT 10SM OVC008 12/11 A2994 RMK AO2 P0001
KEOK 221035Z AUTO 33011G16KT 9SM -RA OVC008 12/11 A2992 RMK AO2
KEOK 221015Z AUTO 32009KT 10SM OVC009 13/12 A2992 RMK AO2
KEOK 220955Z AUTO 33011G18KT 10SM OVC009 13/12 A2990 RMK AO2 P0001
KEOK 220935Z AUTO 31012G18KT 10SM BKN008 BKN017 OVC065 13/12 A2992 RMK AO2
KEOK 220915Z AUTO 33009G17KT 300V360 7SM -RA BKN006 BKN016 OVC065 13/12 A2989 RMK AO2
KEOK 220855Z AUTO 30013KT 4SM +RA BKN006 OVC009 14/13 A2990 RMK AO2 P0019
KEOK 220835Z AUTO 27009G17KT 5SM RA BKN007 BKN036 OVC050 15/15 A2990 RMK AO2
KEOK 220815Z AUTO 34006KT 4SM RA BKN007 BKN031 OVC045 16/15 A2987 RMK AO2
KEOK 220755Z AUTO VRB05KT 3SM RA BKN006 OVC037 16/16 A2988 RMK AO2 P0020
KEOK 220735Z AUTO 33006KT 7SM -RA FEW005 SCT012 OVC035 16/16 A2987 RMK AO2
KEOK 220715Z AUTO 32008G15KT 4SM RA FEW005 BKN012 OVC024 17/15 A2988 RMK AO2
KEOK 220655Z AUTO 29016G22KT 10SM FEW015 OVC025 18/15 A2988 RMK AO2
KEOK 220635Z AUTO 35010KT 10SM OVC026 19/15 A2986 RMK AO2
KEOK 220615Z AUTO 33009G15KT 300V020 10SM SCT026 OVC032 20/15 A2986 RMK AO2
KEOK 220555Z AUTO 19008KT 10SM BKN032 BKN040 OVC100 22/17 A2986 RMK AO2
KEOK 220535Z AUTO 20009G14KT 10SM FEW039 BKN100 23/17 A2986 RMK AO2
KEOK 220515Z AUTO 18009G14KT 10SM SCT100 23/17 A2986 RMK AO2
KEOK 220455Z AUTO 17010G17KT 10SM CLR 23/17 A2986 RMK AO2
KEOK 220435Z AUTO 17008G16KT 10SM CLR 23/17 A2986 RMK AO2
KEOK 220415Z AUTO 18010G17KT 10SM CLR 23/17 A2987 RMK AO2
KEOK 220355Z AUTO 18009G19KT 140V200 10SM FEW090 23/17 A2988 RMK AO2
KEOK 220335Z AUTO 17012G19KT 10SM SCT090 23/17 A2988 RMK AO2
KEOK 220315Z AUTO 19014G20KT 10SM BKN090 23/17 A2988 RMK AO2